createdAt,value
2024-01-09T00:12:11.115Z,84.6
2024-01-09T00:17:11.146Z,84.4
2024-01-09T00:22:11.143Z,84.1
2024-01-09T00:47:11.239Z,84.7
2024-01-09T01:02:11.160Z,83.9
2024-01-09T01:12:11.129Z,84.1
2024-01-09T01:22:11.115Z,83.9
2024-01-09T01:32:11.152Z,83.7
2024-01-09T01:47:11.158Z,84.1
2024-01-09T01:52:11.145Z,84.4
2024-01-09T02:02:11.183Z,84.3
2024-01-09T02:07:11.197Z,84.1
2024-01-09T02:12:11.147Z,84.3
2024-01-09T02:32:11.181Z,83.8
2024-01-09T02:37:11.149Z,84.1
2024-01-09T02:42:11.157Z,83.8
2024-01-09T02:47:11.173Z,83.5
2024-01-09T02:52:11.146Z,83.8
2024-01-09T02:57:11.171Z,83.6
2024-01-09T03:02:11.178Z,83.8
2024-01-09T03:07:11.304Z,83.4
2024-01-09T03:12:11.189Z,83.2
2024-01-09T03:17:11.229Z,83.3
2024-01-09T03:22:11.174Z,83.4
2024-01-09T03:27:11.187Z,83.6
2024-01-09T03:32:11.227Z,83.9
2024-01-09T03:37:11.192Z,83.8
2024-01-09T03:42:11.172Z,84
2024-01-09T03:47:11.182Z,83.8
2024-01-09T03:52:11.190Z,84.1
2024-01-09T03:57:11.235Z,83.8
2024-01-09T04:02:11.228Z,84.3
2024-01-09T04:07:11.179Z,84
2024-01-09T04:12:11.180Z,84.2
2024-01-09T04:17:11.297Z,84.3
2024-01-09T04:22:11.174Z,84.1
2024-01-09T04:27:11.186Z,84
2024-01-09T04:32:11.239Z,84.2
2024-01-09T04:37:11.204Z,84.1
2024-01-09T04:42:11.249Z,84
2024-01-09T04:47:11.242Z,84.1
2024-01-09T04:52:11.198Z,84.2
2024-01-09T04:57:11.234Z,84
2024-01-09T05:02:11.306Z,83.7
2024-01-09T05:07:11.226Z,84
2024-01-09T05:12:11.205Z,84
2024-01-09T05:17:11.260Z,84.1
2024-01-09T05:22:11.175Z,84.3
2024-01-09T05:27:11.218Z,84.4
2024-01-09T05:32:11.256Z,84.9
2024-01-09T05:37:11.201Z,84.4
2024-01-09T05:42:11.240Z,84.6
2024-01-09T05:47:11.285Z,84.4
2024-01-09T05:52:11.203Z,84.8
2024-01-09T05:57:11.238Z,84.4
2024-01-09T06:02:11.246Z,84.4
2024-01-09T06:17:11.235Z,85.8
2024-01-09T06:22:11.246Z,86
2024-01-09T06:27:11.244Z,86.3
2024-01-09T06:52:11.239Z,87.8
2024-01-09T06:57:11.246Z,87.7
2024-01-09T07:02:11.280Z,88.2
2024-01-09T07:07:12.843Z,88.2
2024-01-09T07:17:11.344Z,88.5
2024-01-09T07:32:11.298Z,87.8
2024-01-09T07:52:11.286Z,86.6
2024-01-09T08:27:11.286Z,83.8
2024-01-09T08:37:11.283Z,83.3
2024-01-09T08:42:11.308Z,82.9
2024-01-09T08:47:11.287Z,82
2024-01-09T08:52:11.294Z,82
2024-01-09T09:02:11.302Z,81.3
2024-01-09T09:07:11.359Z,81.5
2024-01-09T09:12:11.332Z,81.3
2024-01-09T09:17:11.321Z,80.2
2024-01-09T09:22:11.323Z,79.9
2024-01-09T09:27:11.390Z,79.6
2024-01-09T09:32:11.340Z,79.3
2024-01-09T09:37:11.317Z,79.1
2024-01-09T09:42:11.335Z,78.7
2024-01-09T09:47:11.331Z,77.9
2024-01-09T09:52:11.327Z,78.4
2024-01-09T09:57:11.379Z,78.1
2024-01-09T10:02:11.331Z,77.4
2024-01-09T10:07:11.321Z,77.8
2024-01-09T10:12:11.332Z,77.5
2024-01-09T10:17:11.340Z,77
2024-01-09T10:22:11.329Z,77.6
2024-01-09T10:27:11.392Z,76.8
2024-01-09T10:32:11.334Z,76.5
2024-01-09T10:37:11.325Z,76.5
2024-01-09T10:42:11.387Z,76.1
2024-01-09T10:47:11.359Z,76.3
2024-01-09T10:52:11.375Z,76.1
2024-01-09T10:57:11.360Z,75.2
2024-01-09T11:02:11.341Z,75.3
2024-01-09T11:07:11.371Z,75.1
2024-01-09T11:12:11.351Z,75.4
2024-01-09T11:17:11.348Z,75.3
2024-01-09T11:22:11.379Z,74.5
2024-01-09T11:27:11.368Z,75.1
2024-01-09T11:32:11.356Z,74.7
2024-01-09T11:37:11.334Z,74.8
2024-01-09T11:42:11.357Z,74.9
2024-01-09T11:47:11.399Z,74.1
2024-01-09T11:52:11.363Z,74.6
2024-01-09T11:57:11.559Z,74.5
2024-01-09T12:02:11.348Z,73.4
2024-01-09T12:07:11.449Z,74
2024-01-09T12:12:11.416Z,74.2
2024-01-09T12:17:11.381Z,74.1
2024-01-09T12:22:11.372Z,74.1
2024-01-09T12:27:11.366Z,74
2024-01-09T12:32:11.395Z,74.2
2024-01-09T12:37:11.371Z,74.6
2024-01-09T12:42:11.398Z,73.4
2024-01-09T12:47:11.366Z,74
2024-01-09T12:52:11.377Z,74
2024-01-09T12:57:11.422Z,74.1
2024-01-09T13:02:11.386Z,74.1
2024-01-09T13:07:11.370Z,74.1
2024-01-09T13:12:14.541Z,74.5
2024-01-09T13:17:11.381Z,75.1
2024-01-09T13:23:40.877Z,75
2024-01-09T13:27:11.421Z,74.8
2024-01-09T13:32:11.440Z,74.9
2024-01-09T13:37:11.365Z,75.1
2024-01-09T13:42:11.369Z,74.8
2024-01-09T13:47:11.428Z,74.5
2024-01-09T13:52:11.407Z,75.5
2024-01-09T13:57:11.399Z,75.3
2024-01-09T14:02:11.508Z,75.7
2024-01-09T14:07:11.375Z,75.5
2024-01-09T14:12:11.408Z,75.6
2024-01-09T14:17:11.460Z,75.6
2024-01-09T14:37:12.884Z,76.5
2024-01-09T14:42:11.357Z,76.6
2024-01-09T14:47:11.579Z,76.5
2024-01-09T14:52:11.387Z,77.1
2024-01-09T14:57:11.366Z,77.4
2024-01-09T15:07:11.380Z,78.2
2024-01-09T15:37:11.384Z,80
2024-01-09T15:57:11.384Z,81.3
2024-01-09T16:02:11.599Z,81.3
2024-01-09T16:07:11.402Z,81.1
2024-01-09T16:22:11.789Z,81.8
2024-01-09T16:42:11.400Z,82.4
2024-01-09T16:52:11.407Z,82.6
2024-01-09T16:57:11.399Z,83.2
2024-01-09T17:12:11.421Z,84.6
2024-01-09T17:17:11.426Z,84.7
2024-01-09T17:22:11.439Z,87.1
2024-01-09T17:27:11.440Z,87.7
2024-01-09T17:32:11.444Z,88.2
2024-01-09T17:37:11.438Z,88.8
2024-01-09T17:42:11.481Z,88.7
2024-01-09T17:47:11.499Z,89.3
2024-01-09T17:52:11.438Z,89.4
2024-01-09T17:57:11.437Z,90.1
2024-01-09T18:02:11.459Z,89.7
2024-01-09T18:07:11.467Z,89.9
2024-01-09T18:12:11.435Z,90.2
2024-01-09T18:17:11.462Z,91.1
2024-01-09T18:22:11.448Z,91.9
2024-01-09T18:27:11.441Z,92.4
2024-01-09T18:32:11.467Z,92.8
2024-01-09T18:37:11.454Z,92.7
2024-01-09T18:42:11.464Z,92
2024-01-09T18:47:11.522Z,91.5
2024-01-09T18:52:11.675Z,92.1
2024-01-09T18:57:11.500Z,92.4
2024-01-09T19:02:11.552Z,92.7
2024-01-09T19:07:11.485Z,93.2
2024-01-09T19:12:11.482Z,93.1
2024-01-09T19:17:11.610Z,93.5
2024-01-09T19:22:11.502Z,93.8
2024-01-09T19:27:11.506Z,93.9
2024-01-09T19:32:11.527Z,93.9
2024-01-09T19:37:11.487Z,93.6
2024-01-09T19:42:12.000Z,93.8
2024-01-09T19:47:11.540Z,93.9
2024-01-09T19:52:11.526Z,94.1
2024-01-09T19:57:11.518Z,93.9
2024-01-09T20:02:11.608Z,93.8
2024-01-09T20:07:11.577Z,93.4
2024-01-09T20:12:13.284Z,92.6
2024-01-09T20:17:11.534Z,92.3
2024-01-09T20:22:11.576Z,92.4
2024-01-09T20:27:11.553Z,93.5
2024-01-09T20:32:11.546Z,94.1
2024-01-09T20:37:11.537Z,94.9
2024-01-09T20:42:11.547Z,95.4
2024-01-09T20:47:11.579Z,95.8
2024-01-09T20:52:11.519Z,95.9
2024-01-09T20:57:11.526Z,96.1
2024-01-09T21:02:11.613Z,96.1
2024-01-09T21:07:11.533Z,96.4
2024-01-09T21:12:11.554Z,96.7
2024-01-09T21:42:11.599Z,95.5
2024-01-09T21:47:11.620Z,96.2
2024-01-09T21:52:11.565Z,96.6
2024-01-09T22:02:11.618Z,97
2024-01-09T22:07:11.595Z,97.3
2024-01-09T22:22:11.596Z,96.9
2024-01-09T22:27:11.591Z,96
2024-01-09T22:37:11.590Z,96.6
2024-01-09T23:02:11.679Z,97.1
2024-01-09T23:07:11.656Z,97.1
2024-01-09T23:12:11.633Z,97
2024-01-09T23:27:11.680Z,97.2
2024-01-09T23:42:11.663Z,97.2
2024-01-09T23:47:11.736Z,97.4
2024-01-09T23:52:11.697Z,97.1
2024-01-09T23:57:12.715Z,95.9
